Terminal Aerodrome Forecast
Issued by NWS Northern Indiana

Home | Current Version | Previous Version | Text Only | Print | Product List | Glossary Off
Versions: 1 2 3 4 5 6 7 8 9 10 11 12 13 14 15 16

314
FTUS43 KIWX 251009 AAA
TAFFWA
TAF AMD
KFWA 251009Z 2510/2606 09008KT P6SM BKN020
     FM251230 15010KT P6SM SCT080=

USA.gov is the U.S. government's official web portal to all federal, state and local government web resources and services.